Resumo da Corrida (Pista: Shanghai | Época: 19 | Corrida: 11 | Grupo: Elite)

Época:  Corrida:

Escolha outro grupo:

Pos Evolução Pneus Nac Nome do Manager Duração da corrida Voltas Pits Melhor volta Velocidade média Melhor paragem
01. +2 +2 Michelini   Edvinas Pranculevicius 1h32:50.186 56 3 1:32.252 197.25km/h 10.187s
02. +3 +3 Michelini   Jari Aareskoski3 + 13.931 56 3 1:32.650 196.76km/h 8.780s
03. -2 -2 Michelini   Toygun Senler1 + 17.768 56 3 1:32.306 196.62km/h 11.684s
04. +2 +2 Michelini   Tomasz Kaminski + 32.797 56 3 1:32.799 196.10km/h 14.226s
05. +16 +16 Dunnolop   Leandro Sereno2 + 1:04.658 56 3 1:33.426 194.99km/h 8.632s
06. +3 +3 Michelini   Marek Marchewka + 1:08.753 56 3 1:33.322 194.85km/h 12.578s
07. +1 +1 Michelini   Jan Zaluski + 1:09.194 56 3 1:33.230 194.83km/h 14.046s
08. -1 -1 Michelini   Aleksej Sutkin + 1:09.782 56 3 1:32.879 194.81km/h 12.612s
09. -5 -5 Michelini   Vladimir Islentiev2 + 1:10.265 56 4 1:32.610 194.79km/h 11.159s
10. Sem alteração ±0 Michelini   João Monteiro + 1:14.088 56 3 1:33.322 194.66km/h 11.546s
11. -9 -9 Michelini   Zdenek Hladik + 1:14.367 56 2 1:32.631 194.65km/h 15.183s
12. +4 +4 Michelini   Denis Grahov + 1:22.897 56 3 1:33.278 194.36km/h 14.787s
13. -1 -1 Michelini   Joan Centellas + 1:23.187 56 1 1:33.682 194.35km/h 12.069s
14. -3 -3 Michelini   Nuno Vicente + 1:23.530 56 1 1:33.192 194.34km/h 15.142s
15. -2 -2 Michelini   Martynas Molneris + 1:23.670 56 3 1:32.979 194.33km/h 15.955s
16. +7 +7 Michelini   Laila Britāle + 1:55.990 55 3 1:33.804 193.23km/h 12.527s
17. -2 -2 Michelini   Wagner Souza + 2:02.239 55 1 1:33.624 193.01km/h 14.737s
18. +2 +2 Michelini   Rimantas Sagatas + 2:07.209 55 1 1:33.648 192.85km/h 16.605s
19. +7 +7 Dunnolop   Andrius Talandzevicius + 2:15.411 55 3 1:34.371 192.57km/h 12.774s
20. +2 +2 Dunnolop   Oli Jais + 2:27.928 55 3 1:34.075 192.15km/h 13.120s
21. -7 -7 Michelini   Renato Svaiter + 3:17.509 54 1 1:35.064 190.50km/h 16.963s
22. -4 -4 Badyear   Toni Söyrinki + 4:36.666 54 3 1:37.052 187.92km/h 14.538s
23. -6 -6 Dunnolop   Gabriel Toma + 4:39.316 53 5 1:33.422 187.83km/h 18.029s
24. Sem alteração ±0 Michelini   Lucas Secundo Abreu + 4:47.580 53 4 1:33.955 187.57km/h 20.659s
25. +3 +3 Badyear   Michael Monaco + 5:13.961 53 3 1:37.695 186.73km/h 14.016s
26. +1 +1 Michelini   Vitor Novo + 5:32.856 53 1 1:37.407 186.13km/h 16.866s
27. +2 +2 Dunnolop   Kostas Farsalinos + 6:09.385 52 3 1:37.907 184.98km/h 17.112s
28. +3 +3 Pipirelli   Mikko Heikkinen + 6:20.301 52 3 1:37.978 184.64km/h 20.431s
29. +5 +5 Pipirelli   Philipp Hartmann + 6:28.261 52 3 1:38.668 184.40km/h 18.661s
30. -11 -11 Badyear   Michał Smiatacz + 6:31.920 52 8 1:34.678 184.28km/h 18.403s
31. -6 -6 Dunnolop   Daniele Ambroggi + 6:54.190 52 3 1:38.700 183.60km/h 12.638s
32. +4 +4 Pipirelli   Martynas Atkočius + 7:16.323 52 3 1:38.966 182.92km/h 16.532s
33. +4 +4 Michelini   Martin Rosina + 8:33.930 51 4 1:39.550 180.59km/h 13.510s
34. -4 -4 Dunnolop   Michalis Marolachakis + 9:01.856 51 3 1:39.729 179.76km/h 13.183s
35. -2 -2 Pipirelli   Craig Templeman + 9:58.195 50 4 1:39.602 178.12km/h 18.748s
Não classificados   (112% do tempo de corrida: +11:08.422s)
36. -1 -1 Michelini   Filipe Miguel Problemas técnicos 30 3 1:36.794    25.097s
37. -5 -5 Badyear   Lee Ifans Problemas técnicos 23 2 1:39.501    20.083s